Delcambre, Louisiana
Current Conditions -  °F | °C
As of 5:50 PM on Monday 20 Oct 2014 (Local Time) from KIYA Reporting Station
Clear Clear  
Wind Chill: 73°   Ceiling: Unl
Heat Index: 73°   Visibility: 10mi
Dew Point: 58°   Wind: 3mph
Humidity: 59%   Direction: 50°NE
Pressure: 30"   Gusts: NA
Location:  29.95°N, 91.99°W
Report Text: KIYA 202250Z AUTO 05003KT 10SM CLR 23/14 A3000 RMK AO2 T02270144
Loading
Personal Weather Stations






























Interactive Weather Map
Tropical Storm Tracking
New forecast layout! Learn more

10-Day Weather Forecast

Advertisements
Track Severe Weather on mobile